Kezdőlap
METAR-TAF:

METAR-TAF

Repülőterek :

Columbus, Indiana, Amerikai Egyesült Államok

földrajzi szélesség: 39-16N, földrajzi hosszúság: 085-54W, magasság: 200 m

Jelenlegi meteorológiai megfigyelések

A jelentés 33 perccel ezelõtt készült, 10:45 UTC
Szélcsend
Hőmérséklet 17°C
Páratartalom 94%
Légköri nyomás 1019 hPa
Látótávolság: 16.1 km
Szakadozott felhőzet 7000 lábon
Borult 8000 lábon

METAR: KBAK 211045Z 00000KT 10SM BKN070 OVC080 17/16 A3010

Idő: 07:18 (11:18 UTC)


TAF: hiányzik

Meteorológiai megfigyelések és előrejelzések több, mint 4000 repülőtéren (METAR és TAF jelentéseket).

A térképen piros és sárga pontok jelzik az elérhető meteorológiai állomásokat.

Mozgassa az egeret a pont fölött, hogy megjelenjen az állomás neve.

Azután kattintson az időjárási megfigyelések és előrejelzések megtekintéséhez.

A térkép megváltoztatása: kattintson a fekete keresztel jelölt zöld gombra ráközelítéshez, a vonallal jelölt zöld gombra távolításhoz, vagy a zöld nyilakra a szomszédos térképek eléréséhez.


METAR-TAF: